Etusivu
METAR-TAF:

METAR-TAF

Lentoasemat :

Algeciras, Espanja

Leveyspiiri: 36-07-44N, Pituuspiiri: 05-26-28W, korkeus merenpinnasta: 30 m

Tämänhetkinen sää

Tämä raportti tehtiin 10 minuuttia sitten, kello 13.30 UTC
Tuuli 3 kn etelästä/kaakosta
Lämpötila 28°C
Kosteus 45%
Ilmanpaine 1015 hPa
Näkyvyys 10 km tai enemmän
ei pilviä alle 1500 m:ssä eikä cumulonimbus-pilviä

METAR: LEAG 161330Z AUTO 16003KT CAVOK 28/15 Q1015

Aika: 15:40 (13:40 UTC)

Sääennuste

Tämä raportti tehtiin 5 tuntia ja 40 minuuttia sitten, kello 08.00 UTC
Ennuste voimassa 16. päivästä klo 09 UTC - 17. päivään klo 09 UTC
Tuuli 2 kn eri suunnista
Näkyvyys 10 km tai enemmän
ei pilviä alle 1500 m:ssä eikä cumulonimbus-pilviä
Tulossa
16. päivästä klo 12 UTC - 16. päivään klo 14 UTC
Tuuli 10 kn lännestä/luoteesta
Tulossa
16. päivästä klo 22 UTC - 16. päivään klo 24 UTC
Tuuli 2 kn eri suunnista

TAF: LEAG 160800Z 1609/1709 VRB02KT CAVOK TX27/1615Z TN14/1706Z BECMG 1612/1614 29010KT BECMG 1622/1624 VRB02KT

Säähavainnot ja -ennusteet yli 4000 lentoasemalta (METAR- ja TAF-raportit).

Käytössä olevat sääasemat on merkitty karttaan keltaisilla ja punaisilla pisteillä.

Aseta hiiri pisteen päälle nähdäksesi sääaseman nimen.

Klikkaa sitten nähdäksesi säähavainnot ja -ennusteet.

Kartan vaihtaminen: klikkaa mustalla rastilla varustettuja vihreitä pisteitä, niin voit zoomata sisään; viivalla varustettua vihreää pistettä, niin voit zoomata ulos tai vihreitä nuolia, niin pääset viereisille kartoille.


METAR-TAF: